sensor_id;sensor_type;location;lat;lon;timestamp;P1;durP1;ratioP1;P2;durP2;ratioP2
69754;SDS011;57023;52.218;5.158;2022-12-07T00:01:06;15.23;;;8.55;;
69754;SDS011;57023;52.218;5.158;2022-12-07T00:03:32;10.95;;;7.38;;
69754;SDS011;57023;52.218;5.158;2022-12-07T00:05:58;16.83;;;8.25;;
69754;SDS011;57023;52.218;5.158;2022-12-07T00:08:24;18.60;;;8.60;;
69754;SDS011;57023;52.218;5.158;2022-12-07T00:10:50;15.07;;;8.38;;
69754;SDS011;57023;52.218;5.158;2022-12-07T00:13:15;16.23;;;7.90;;
69754;SDS011;57023;52.218;5.158;2022-12-07T00:15:41;16.27;;;8.43;;
69754;SDS011;57023;52.218;5.158;2022-12-07T00:18:06;18.20;;;8.27;;
69754;SDS011;57023;52.218;5.158;2022-12-07T00:20:32;17.63;;;7.95;;
69754;SDS011;57023;52.218;5.158;2022-12-07T00:22:58;16.17;;;7.78;;
69754;SDS011;57023;52.218;5.158;2022-12-07T00:25:26;14.70;;;7.75;;
69754;SDS011;57023;52.218;5.158;2022-12-07T00:27:52;17.05;;;7.93;;
69754;SDS011;57023;52.218;5.158;2022-12-07T00:30:22;13.73;;;7.57;;
69754;SDS011;57023;52.218;5.158;2022-12-07T00:32:49;14.13;;;7.47;;
69754;SDS011;57023;52.218;5.158;2022-12-07T00:35:15;14.25;;;7.13;;
69754;SDS011;57023;52.218;5.158;2022-12-07T00:37:40;14.40;;;6.88;;
69754;SDS011;57023;52.218;5.158;2022-12-07T00:40:06;13.85;;;6.80;;
69754;SDS011;57023;52.218;5.158;2022-12-07T00:42:33;14.48;;;7.00;;
69754;SDS011;57023;52.218;5.158;2022-12-07T00:44:58;9.95;;;6.07;;
69754;SDS011;57023;52.218;5.158;2022-12-07T00:47:24;12.13;;;6.53;;
69754;SDS011;57023;52.218;5.158;2022-12-07T00:49:49;14.38;;;6.57;;
69754;SDS011;57023;52.218;5.158;2022-12-07T00:52:15;9.68;;;5.43;;
69754;SDS011;57023;52.218;5.158;2022-12-07T00:54:41;12.02;;;5.93;;
69754;SDS011;57023;52.218;5.158;2022-12-07T00:57:07;11.93;;;5.78;;
69754;SDS011;57023;52.218;5.158;2022-12-07T00:59:32;9.98;;;5.35;;
69754;SDS011;57023;52.218;5.158;2022-12-07T01:01:58;13.95;;;5.78;;
69754;SDS011;57023;52.218;5.158;2022-12-07T01:04:23;12.43;;;5.28;;
69754;SDS011;57023;52.218;5.158;2022-12-07T01:06:49;12.02;;;5.82;;
69754;SDS011;57023;52.218;5.158;2022-12-07T01:09:14;11.57;;;5.57;;
69754;SDS011;57023;52.218;5.158;2022-12-07T01:11:40;11.93;;;5.97;;
69754;SDS011;57023;52.218;5.158;2022-12-07T01:14:05;12.25;;;5.88;;
69754;SDS011;57023;52.218;5.158;2022-12-07T01:16:31;10.45;;;5.25;;
69754;SDS011;57023;52.218;5.158;2022-12-07T01:18:57;10.18;;;4.90;;
69754;SDS011;57023;52.218;5.158;2022-12-07T01:21:27;13.90;;;5.30;;
69754;SDS011;57023;52.218;5.158;2022-12-07T01:23:54;10.60;;;4.85;;
69754;SDS011;57023;52.218;5.158;2022-12-07T01:26:22;9.93;;;5.30;;
69754;SDS011;57023;52.218;5.158;2022-12-07T01:28:50;10.50;;;4.90;;
69754;SDS011;57023;52.218;5.158;2022-12-07T01:31:20;12.57;;;5.32;;
69754;SDS011;57023;52.218;5.158;2022-12-07T01:33:50;11.15;;;5.60;;
69754;SDS011;57023;52.218;5.158;2022-12-07T01:38:42;9.63;;;4.85;;
69754;SDS011;57023;52.218;5.158;2022-12-07T01:41:09;11.10;;;5.10;;
69754;SDS011;57023;52.218;5.158;2022-12-07T01:43:34;11.73;;;5.38;;
69754;SDS011;57023;52.218;5.158;2022-12-07T01:46:00;9.88;;;5.40;;
69754;SDS011;57023;52.218;5.158;2022-12-07T01:48:38;9.48;;;5.38;;
69754;SDS011;57023;52.218;5.158;2022-12-07T01:51:05;16.02;;;5.35;;
69754;SDS011;57023;52.218;5.158;2022-12-07T01:53:38;13.18;;;5.40;;
69754;SDS011;57023;52.218;5.158;2022-12-07T01:56:06;10.20;;;4.75;;
69754;SDS011;57023;52.218;5.158;2022-12-07T01:58:33;14.95;;;4.88;;
69754;SDS011;57023;52.218;5.158;2022-12-07T02:00:59;14.45;;;4.55;;
69754;SDS011;57023;52.218;5.158;2022-12-07T02:03:35;10.43;;;4.88;;
69754;SDS011;57023;52.218;5.158;2022-12-07T02:06:04;12.38;;;4.40;;
69754;SDS011;57023;52.218;5.158;2022-12-07T02:08:29;11.13;;;4.72;;
69754;SDS011;57023;52.218;5.158;2022-12-07T02:10:55;9.13;;;3.85;;
69754;SDS011;57023;52.218;5.158;2022-12-07T02:13:24;9.25;;;4.20;;
69754;SDS011;57023;52.218;5.158;2022-12-07T02:21:07;11.45;;;4.28;;
69754;SDS011;57023;52.218;5.158;2022-12-07T02:24:36;11.57;;;3.65;;
69754;SDS011;57023;52.218;5.158;2022-12-07T02:27:00;8.60;;;3.30;;
69754;SDS011;57023;52.218;5.158;2022-12-07T02:29:47;12.48;;;4.22;;
69754;SDS011;57023;52.218;5.158;2022-12-07T02:32:33;7.18;;;3.58;;
69754;SDS011;57023;52.218;5.158;2022-12-07T02:35:15;7.85;;;3.63;;
69754;SDS011;57023;52.218;5.158;2022-12-07T02:40:14;10.83;;;3.67;;
69754;SDS011;57023;52.218;5.158;2022-12-07T02:43:07;6.50;;;3.47;;
69754;SDS011;57023;52.218;5.158;2022-12-07T02:45:38;5.82;;;3.50;;
69754;SDS011;57023;52.218;5.158;2022-12-07T02:48:05;9.38;;;3.88;;
69754;SDS011;57023;52.218;5.158;2022-12-07T02:50:32;10.63;;;3.70;;
69754;SDS011;57023;52.218;5.158;2022-12-07T02:52:57;13.00;;;3.92;;
69754;SDS011;57023;52.218;5.158;2022-12-07T02:55:25;12.45;;;3.90;;
69754;SDS011;57023;52.218;5.158;2022-12-07T03:00:30;8.07;;;3.65;;
69754;SDS011;57023;52.218;5.158;2022-12-07T03:03:09;11.18;;;3.60;;
69754;SDS011;57023;52.218;5.158;2022-12-07T03:05:58;8.85;;;3.40;;
69754;SDS011;57023;52.218;5.158;2022-12-07T03:11:08;8.02;;;3.30;;
69754;SDS011;57023;52.218;5.158;2022-12-07T03:16:30;7.00;;;3.10;;
69754;SDS011;57023;52.218;5.158;2022-12-07T03:18:59;10.30;;;3.30;;
69754;SDS011;57023;52.218;5.158;2022-12-07T03:21:31;8.80;;;3.30;;
69754;SDS011;57023;52.218;5.158;2022-12-07T03:23:59;6.70;;;3.03;;
69754;SDS011;57023;52.218;5.158;2022-12-07T03:26:33;8.63;;;3.30;;
69754;SDS011;57023;52.218;5.158;2022-12-07T03:29:01;9.57;;;3.00;;
69754;SDS011;57023;52.218;5.158;2022-12-07T03:31:31;9.18;;;3.20;;
69754;SDS011;57023;52.218;5.158;2022-12-07T03:36:57;7.72;;;3.60;;
69754;SDS011;57023;52.218;5.158;2022-12-07T03:39:38;8.55;;;3.33;;
69754;SDS011;57023;52.218;5.158;2022-12-07T03:42:06;7.72;;;3.20;;
69754;SDS011;57023;52.218;5.158;2022-12-07T03:44:34;10.45;;;3.35;;
69754;SDS011;57023;52.218;5.158;2022-12-07T03:47:01;7.60;;;3.20;;
69754;SDS011;57023;52.218;5.158;2022-12-07T03:54:47;9.35;;;3.88;;
69754;SDS011;57023;52.218;5.158;2022-12-07T03:57:18;6.45;;;3.53;;
69754;SDS011;57023;52.218;5.158;2022-12-07T03:59:44;9.50;;;3.47;;
69754;SDS011;57023;52.218;5.158;2022-12-07T04:02:11;9.05;;;3.63;;
69754;SDS011;57023;52.218;5.158;2022-12-07T04:04:37;11.32;;;3.67;;
69754;SDS011;57023;52.218;5.158;2022-12-07T04:07:03;10.88;;;3.70;;
69754;SDS011;57023;52.218;5.158;2022-12-07T04:09:28;6.88;;;3.45;;
69754;SDS011;57023;52.218;5.158;2022-12-07T04:11:54;7.60;;;3.40;;
69754;SDS011;57023;52.218;5.158;2022-12-07T04:14:19;10.23;;;3.42;;
69754;SDS011;57023;52.218;5.158;2022-12-07T04:16:48;7.45;;;3.15;;
69754;SDS011;57023;52.218;5.158;2022-12-07T04:19:15;8.57;;;3.45;;
69754;SDS011;57023;52.218;5.158;2022-12-07T04:21:42;6.68;;;3.40;;
69754;SDS011;57023;52.218;5.158;2022-12-07T04:24:08;7.28;;;3.10;;
69754;SDS011;57023;52.218;5.158;2022-12-07T04:26:33;11.05;;;3.30;;
69754;SDS011;57023;52.218;5.158;2022-12-07T04:28:58;6.72;;;3.10;;
69754;SDS011;57023;52.218;5.158;2022-12-07T04:31:24;29.33;;;3.45;;
69754;SDS011;57023;52.218;5.158;2022-12-07T04:33:50;10.85;;;2.85;;
69754;SDS011;57023;52.218;5.158;2022-12-07T04:36:15;6.53;;;2.20;;
69754;SDS011;57023;52.218;5.158;2022-12-07T04:38:40;6.78;;;2.25;;
69754;SDS011;57023;52.218;5.158;2022-12-07T04:41:06;8.48;;;2.40;;
69754;SDS011;57023;52.218;5.158;2022-12-07T04:43:33;8.27;;;2.20;;
69754;SDS011;57023;52.218;5.158;2022-12-07T04:45:58;8.27;;;2.47;;
69754;SDS011;57023;52.218;5.158;2022-12-07T04:48:24;7.13;;;1.98;;
69754;SDS011;57023;52.218;5.158;2022-12-07T04:50:49;7.05;;;2.30;;
69754;SDS011;57023;52.218;5.158;2022-12-07T04:53:15;5.00;;;2.30;;
69754;SDS011;57023;52.218;5.158;2022-12-07T04:55:40;8.70;;;2.50;;
69754;SDS011;57023;52.218;5.158;2022-12-07T04:58:06;6.05;;;2.10;;
69754;SDS011;57023;52.218;5.158;2022-12-07T05:00:31;9.27;;;2.38;;
69754;SDS011;57023;52.218;5.158;2022-12-07T05:02:56;7.82;;;3.00;;
69754;SDS011;57023;52.218;5.158;2022-12-07T05:05:22;8.00;;;2.80;;
69754;SDS011;57023;52.218;5.158;2022-12-07T05:07:47;9.95;;;3.25;;
69754;SDS011;57023;52.218;5.158;2022-12-07T05:10:12;8.38;;;3.50;;
69754;SDS011;57023;52.218;5.158;2022-12-07T05:12:38;9.27;;;3.70;;
69754;SDS011;57023;52.218;5.158;2022-12-07T05:15:03;9.02;;;3.70;;
69754;SDS011;57023;52.218;5.158;2022-12-07T05:17:29;8.88;;;3.50;;
69754;SDS011;57023;52.218;5.158;2022-12-07T05:19:54;9.85;;;3.33;;
69754;SDS011;57023;52.218;5.158;2022-12-07T05:22:20;9.40;;;3.80;;
69754;SDS011;57023;52.218;5.158;2022-12-07T05:24:46;8.40;;;3.70;;
69754;SDS011;57023;52.218;5.158;2022-12-07T05:27:11;10.95;;;3.58;;
69754;SDS011;57023;52.218;5.158;2022-12-07T05:29:37;8.55;;;3.53;;
69754;SDS011;57023;52.218;5.158;2022-12-07T05:32:02;10.45;;;3.83;;
69754;SDS011;57023;52.218;5.158;2022-12-07T05:34:27;7.03;;;3.70;;
69754;SDS011;57023;52.218;5.158;2022-12-07T05:36:53;8.30;;;4.10;;
69754;SDS011;57023;52.218;5.158;2022-12-07T05:39:18;9.45;;;3.75;;
69754;SDS011;57023;52.218;5.158;2022-12-07T05:41:43;10.13;;;3.85;;
69754;SDS011;57023;52.218;5.158;2022-12-07T05:44:27;9.10;;;3.90;;
69754;SDS011;57023;52.218;5.158;2022-12-07T05:46:52;8.23;;;3.90;;
69754;SDS011;57023;52.218;5.158;2022-12-07T05:49:18;9.73;;;3.70;;
69754;SDS011;57023;52.218;5.158;2022-12-07T05:51:43;9.20;;;3.80;;
69754;SDS011;57023;52.218;5.158;2022-12-07T05:54:08;8.85;;;3.88;;
69754;SDS011;57023;52.218;5.158;2022-12-07T05:56:34;12.05;;;4.35;;
69754;SDS011;57023;52.218;5.158;2022-12-07T05:58:59;11.10;;;3.80;;
69754;SDS011;57023;52.218;5.158;2022-12-07T06:01:43;9.27;;;3.50;;
69754;SDS011;57023;52.218;5.158;2022-12-07T06:04:08;9.70;;;3.90;;
69754;SDS011;57023;52.218;5.158;2022-12-07T06:06:34;14.32;;;5.03;;
69754;SDS011;57023;52.218;5.158;2022-12-07T06:08:59;12.40;;;5.97;;
69754;SDS011;57023;52.218;5.158;2022-12-07T06:11:24;14.48;;;5.82;;
69754;SDS011;57023;52.218;5.158;2022-12-07T06:14:08;11.27;;;5.50;;
69754;SDS011;57023;52.218;5.158;2022-12-07T06:16:34;12.25;;;5.70;;
69754;SDS011;57023;52.218;5.158;2022-12-07T06:18:59;11.77;;;4.70;;
69754;SDS011;57023;52.218;5.158;2022-12-07T06:21:24;9.10;;;5.10;;
69754;SDS011;57023;52.218;5.158;2022-12-07T06:23:51;10.23;;;4.90;;
69754;SDS011;57023;52.218;5.158;2022-12-07T06:26:17;13.82;;;4.82;;
69754;SDS011;57023;52.218;5.158;2022-12-07T06:28:42;9.38;;;4.10;;
69754;SDS011;57023;52.218;5.158;2022-12-07T06:31:07;12.40;;;3.75;;
69754;SDS011;57023;52.218;5.158;2022-12-07T06:33:33;8.93;;;3.70;;
69754;SDS011;57023;52.218;5.158;2022-12-07T06:35:58;10.93;;;3.78;;
69754;SDS011;57023;52.218;5.158;2022-12-07T06:38:24;12.32;;;4.00;;
69754;SDS011;57023;52.218;5.158;2022-12-07T06:40:49;10.55;;;4.07;;
69754;SDS011;57023;52.218;5.158;2022-12-07T06:43:15;9.95;;;3.97;;
69754;SDS011;57023;52.218;5.158;2022-12-07T06:45:40;8.77;;;3.70;;
69754;SDS011;57023;52.218;5.158;2022-12-07T06:48:06;12.25;;;4.20;;
69754;SDS011;57023;52.218;5.158;2022-12-07T06:50:31;10.35;;;3.80;;
69754;SDS011;57023;52.218;5.158;2022-12-07T06:52:56;10.95;;;4.45;;
69754;SDS011;57023;52.218;5.158;2022-12-07T06:55:22;8.95;;;4.38;;
69754;SDS011;57023;52.218;5.158;2022-12-07T06:57:47;10.15;;;4.25;;
69754;SDS011;57023;52.218;5.158;2022-12-07T07:00:13;9.25;;;4.22;;
69754;SDS011;57023;52.218;5.158;2022-12-07T07:02:38;9.50;;;4.00;;
69754;SDS011;57023;52.218;5.158;2022-12-07T07:05:04;11.75;;;4.60;;
69754;SDS011;57023;52.218;5.158;2022-12-07T07:07:29;9.60;;;4.00;;
69754;SDS011;57023;52.218;5.158;2022-12-07T07:09:54;10.25;;;4.15;;
69754;SDS011;57023;52.218;5.158;2022-12-07T07:12:20;11.85;;;4.65;;
69754;SDS011;57023;52.218;5.158;2022-12-07T07:14:45;8.32;;;4.10;;
69754;SDS011;57023;52.218;5.158;2022-12-07T07:17:10;8.93;;;4.50;;
69754;SDS011;57023;52.218;5.158;2022-12-07T07:19:36;10.80;;;4.78;;
69754;SDS011;57023;52.218;5.158;2022-12-07T07:22:02;9.52;;;4.80;;
69754;SDS011;57023;52.218;5.158;2022-12-07T07:24:27;12.30;;;5.40;;
69754;SDS011;57023;52.218;5.158;2022-12-07T07:26:53;9.40;;;5.47;;
69754;SDS011;57023;52.218;5.158;2022-12-07T07:29:18;11.68;;;5.05;;
69754;SDS011;57023;52.218;5.158;2022-12-07T07:31:43;12.85;;;5.30;;
69754;SDS011;57023;52.218;5.158;2022-12-07T07:34:09;9.13;;;5.35;;
69754;SDS011;57023;52.218;5.158;2022-12-07T07:36:34;13.13;;;4.78;;
69754;SDS011;57023;52.218;5.158;2022-12-07T07:38:59;13.65;;;5.15;;
69754;SDS011;57023;52.218;5.158;2022-12-07T07:41:25;11.88;;;4.68;;
69754;SDS011;57023;52.218;5.158;2022-12-07T07:43:50;10.48;;;4.75;;
69754;SDS011;57023;52.218;5.158;2022-12-07T07:46:15;10.93;;;4.72;;
69754;SDS011;57023;52.218;5.158;2022-12-07T07:48:41;11.48;;;4.60;;
69754;SDS011;57023;52.218;5.158;2022-12-07T07:51:06;9.13;;;4.53;;
69754;SDS011;57023;52.218;5.158;2022-12-07T07:53:32;14.35;;;5.03;;
69754;SDS011;57023;52.218;5.158;2022-12-07T07:55:57;12.05;;;5.55;;
69754;SDS011;57023;52.218;5.158;2022-12-07T07:58:23;12.73;;;5.70;;
69754;SDS011;57023;52.218;5.158;2022-12-07T08:00:48;9.65;;;5.43;;
69754;SDS011;57023;52.218;5.158;2022-12-07T08:03:14;9.35;;;5.50;;
69754;SDS011;57023;52.218;5.158;2022-12-07T08:05:40;8.52;;;4.57;;
69754;SDS011;57023;52.218;5.158;2022-12-07T08:08:07;19.23;;;6.43;;
69754;SDS011;57023;52.218;5.158;2022-12-07T08:10:33;11.75;;;5.53;;
69754;SDS011;57023;52.218;5.158;2022-12-07T08:13:00;12.10;;;4.68;;
69754;SDS011;57023;52.218;5.158;2022-12-07T08:15:41;10.30;;;4.18;;
69754;SDS011;57023;52.218;5.158;2022-12-07T08:18:12;9.57;;;4.03;;
69754;SDS011;57023;52.218;5.158;2022-12-07T08:20:38;11.60;;;4.45;;
69754;SDS011;57023;52.218;5.158;2022-12-07T08:23:04;15.95;;;4.50;;
69754;SDS011;57023;52.218;5.158;2022-12-07T08:25:30;10.85;;;3.90;;
69754;SDS011;57023;52.218;5.158;2022-12-07T08:27:56;9.18;;;3.90;;
69754;SDS011;57023;52.218;5.158;2022-12-07T08:30:21;8.32;;;3.80;;
69754;SDS011;57023;52.218;5.158;2022-12-07T08:32:47;10.90;;;3.92;;
69754;SDS011;57023;52.218;5.158;2022-12-07T08:35:13;12.70;;;3.80;;
69754;SDS011;57023;52.218;5.158;2022-12-07T08:37:39;11.20;;;3.67;;
69754;SDS011;57023;52.218;5.158;2022-12-07T08:40:10;9.63;;;3.50;;
69754;SDS011;57023;52.218;5.158;2022-12-07T08:42:39;11.77;;;4.53;;
69754;SDS011;57023;52.218;5.158;2022-12-07T08:45:09;10.63;;;3.95;;
69754;SDS011;57023;52.218;5.158;2022-12-07T08:47:37;8.18;;;3.58;;
69754;SDS011;57023;52.218;5.158;2022-12-07T08:50:05;11.27;;;3.80;;
69754;SDS011;57023;52.218;5.158;2022-12-07T08:52:32;12.02;;;3.63;;
69754;SDS011;57023;52.218;5.158;2022-12-07T08:54:58;7.90;;;2.70;;
69754;SDS011;57023;52.218;5.158;2022-12-07T08:57:25;7.68;;;3.10;;
69754;SDS011;57023;52.218;5.158;2022-12-07T08:59:50;7.88;;;2.83;;
69754;SDS011;57023;52.218;5.158;2022-12-07T09:02:15;8.38;;;2.90;;
69754;SDS011;57023;52.218;5.158;2022-12-07T09:04:42;7.00;;;3.13;;
69754;SDS011;57023;52.218;5.158;2022-12-07T09:07:08;10.60;;;3.00;;
69754;SDS011;57023;52.218;5.158;2022-12-07T09:09:33;9.38;;;3.10;;
69754;SDS011;57023;52.218;5.158;2022-12-07T09:11:59;10.43;;;3.20;;
69754;SDS011;57023;52.218;5.158;2022-12-07T09:14:24;11.00;;;3.30;;
69754;SDS011;57023;52.218;5.158;2022-12-07T09:16:49;8.82;;;2.85;;
69754;SDS011;57023;52.218;5.158;2022-12-07T09:19:15;6.97;;;2.80;;
69754;SDS011;57023;52.218;5.158;2022-12-07T09:21:40;9.35;;;3.00;;
69754;SDS011;57023;52.218;5.158;2022-12-07T09:24:06;7.13;;;3.08;;
69754;SDS011;57023;52.218;5.158;2022-12-07T09:26:31;10.02;;;3.42;;
69754;SDS011;57023;52.218;5.158;2022-12-07T09:28:56;8.65;;;3.25;;
69754;SDS011;57023;52.218;5.158;2022-12-07T09:31:22;10.35;;;3.22;;
69754;SDS011;57023;52.218;5.158;2022-12-07T09:33:53;10.75;;;3.35;;
69754;SDS011;57023;52.218;5.158;2022-12-07T09:36:19;6.43;;;2.65;;
69754;SDS011;57023;52.218;5.158;2022-12-07T09:38:45;10.05;;;3.35;;
69754;SDS011;57023;52.218;5.158;2022-12-07T09:41:10;8.32;;;3.20;;
69754;SDS011;57023;52.218;5.158;2022-12-07T09:43:36;9.27;;;3.00;;
69754;SDS011;57023;52.218;5.158;2022-12-07T09:46:04;5.78;;;2.72;;
69754;SDS011;57023;52.218;5.158;2022-12-07T09:48:34;10.82;;;3.10;;
69754;SDS011;57023;52.218;5.158;2022-12-07T09:53:27;11.00;;;3.55;;
69754;SDS011;57023;52.218;5.158;2022-12-07T09:55:54;10.13;;;2.97;;
69754;SDS011;57023;52.218;5.158;2022-12-07T09:58:23;11.32;;;3.22;;
69754;SDS011;57023;52.218;5.158;2022-12-07T10:00:53;9.45;;;2.92;;
69754;SDS011;57023;52.218;5.158;2022-12-07T10:03:20;6.40;;;2.70;;
69754;SDS011;57023;52.218;5.158;2022-12-07T10:05:47;7.55;;;2.80;;
69754;SDS011;57023;52.218;5.158;2022-12-07T10:08:13;11.98;;;3.00;;
69754;SDS011;57023;52.218;5.158;2022-12-07T10:10:40;9.23;;;3.00;;
69754;SDS011;57023;52.218;5.158;2022-12-07T10:13:16;7.35;;;2.90;;
69754;SDS011;57023;52.218;5.158;2022-12-07T10:20:44;7.97;;;2.63;;
69754;SDS011;57023;52.218;5.158;2022-12-07T10:23:16;8.48;;;2.80;;
69754;SDS011;57023;52.218;5.158;2022-12-07T10:25:43;5.32;;;2.45;;
69754;SDS011;57023;52.218;5.158;2022-12-07T10:28:11;6.40;;;2.50;;
69754;SDS011;57023;52.218;5.158;2022-12-07T10:30:55;6.47;;;2.38;;
69754;SDS011;57023;52.218;5.158;2022-12-07T10:35:58;7.75;;;2.65;;
69754;SDS011;57023;52.218;5.158;2022-12-07T10:38:24;6.50;;;2.75;;
69754;SDS011;57023;52.218;5.158;2022-12-07T10:43:27;6.25;;;2.50;;
69754;SDS011;57023;52.218;5.158;2022-12-07T11:02:24;7.18;;;3.00;;
69754;SDS011;57023;52.218;5.158;2022-12-07T11:05:01;10.75;;;3.03;;
69754;SDS011;57023;52.218;5.158;2022-12-07T11:07:38;8.23;;;2.70;;
69754;SDS011;57023;52.218;5.158;2022-12-07T11:10:11;7.78;;;2.60;;
69754;SDS011;57023;52.218;5.158;2022-12-07T11:17:45;8.27;;;2.70;;
69754;SDS011;57023;52.218;5.158;2022-12-07T11:31:53;6.68;;;2.30;;
69754;SDS011;57023;52.218;5.158;2022-12-07T11:34:50;5.25;;;2.20;;
69754;SDS011;57023;52.218;5.158;2022-12-07T11:37:29;5.80;;;2.10;;
69754;SDS011;57023;52.218;5.158;2022-12-07T11:39:59;5.28;;;2.20;;
69754;SDS011;57023;52.218;5.158;2022-12-07T11:42:29;7.05;;;2.45;;
69754;SDS011;57023;52.218;5.158;2022-12-07T11:44:59;4.65;;;2.10;;
69754;SDS011;57023;52.218;5.158;2022-12-07T11:50:44;7.20;;;2.53;;
69754;SDS011;57023;52.218;5.158;2022-12-07T11:53:17;6.38;;;2.33;;
69754;SDS011;57023;52.218;5.158;2022-12-07T11:55:49;7.80;;;2.58;;
69754;SDS011;57023;52.218;5.158;2022-12-07T11:58:38;7.13;;;2.38;;
69754;SDS011;57023;52.218;5.158;2022-12-07T12:04:00;6.97;;;2.60;;
69754;SDS011;57023;52.218;5.158;2022-12-07T12:06:30;7.68;;;2.80;;
69754;SDS011;57023;52.218;5.158;2022-12-07T12:17:14;6.22;;;2.30;;
69754;SDS011;57023;52.218;5.158;2022-12-07T12:22:49;8.93;;;2.38;;
69754;SDS011;57023;52.218;5.158;2022-12-07T12:25:29;6.90;;;2.55;;
69754;SDS011;57023;52.218;5.158;2022-12-07T12:28:00;5.50;;;2.20;;
69754;SDS011;57023;52.218;5.158;2022-12-07T12:30:35;5.28;;;1.98;;
69754;SDS011;57023;52.218;5.158;2022-12-07T12:33:06;3.72;;;1.92;;
69754;SDS011;57023;52.218;5.158;2022-12-07T12:35:40;4.85;;;1.90;;
69754;SDS011;57023;52.218;5.158;2022-12-07T12:38:28;5.47;;;2.00;;
69754;SDS011;57023;52.218;5.158;2022-12-07T12:40:56;3.28;;;1.85;;
69754;SDS011;57023;52.218;5.158;2022-12-07T12:51:57;4.75;;;2.00;;
69754;SDS011;57023;52.218;5.158;2022-12-07T12:54:31;5.28;;;2.40;;
69754;SDS011;57023;52.218;5.158;2022-12-07T12:57:06;5.90;;;2.38;;
69754;SDS011;57023;52.218;5.158;2022-12-07T13:04:56;6.63;;;2.50;;
69754;SDS011;57023;52.218;5.158;2022-12-07T13:15:36;5.70;;;2.75;;
69754;SDS011;57023;52.218;5.158;2022-12-07T13:23:23;8.38;;;3.10;;
69754;SDS011;57023;52.218;5.158;2022-12-07T13:28:37;6.72;;;2.22;;
69754;SDS011;57023;52.218;5.158;2022-12-07T13:31:23;5.45;;;2.10;;
69754;SDS011;57023;52.218;5.158;2022-12-07T13:33:49;8.07;;;2.60;;
69754;SDS011;57023;52.218;5.158;2022-12-07T13:36:37;6.25;;;2.05;;
69754;SDS011;57023;52.218;5.158;2022-12-07T13:41:43;5.38;;;2.10;;
69754;SDS011;57023;52.218;5.158;2022-12-07T13:44:10;7.30;;;2.10;;
69754;SDS011;57023;52.218;5.158;2022-12-07T13:46:49;8.05;;;2.47;;
69754;SDS011;57023;52.218;5.158;2022-12-07T13:49:45;7.43;;;2.30;;
69754;SDS011;57023;52.218;5.158;2022-12-07T13:52:34;8.93;;;2.78;;
69754;SDS011;57023;52.218;5.158;2022-12-07T13:55:15;7.07;;;2.80;;
69754;SDS011;57023;52.218;5.158;2022-12-07T13:57:42;7.93;;;2.95;;
69754;SDS011;57023;52.218;5.158;2022-12-07T14:00:14;6.80;;;2.70;;
69754;SDS011;57023;52.218;5.158;2022-12-07T14:05:27;8.95;;;2.60;;
69754;SDS011;57023;52.218;5.158;2022-12-07T14:10:55;7.40;;;2.35;;
69754;SDS011;57023;52.218;5.158;2022-12-07T14:13:35;4.07;;;1.90;;
69754;SDS011;57023;52.218;5.158;2022-12-07T14:16:05;4.40;;;2.00;;
69754;SDS011;57023;52.218;5.158;2022-12-07T14:18:43;5.72;;;2.00;;
69754;SDS011;57023;52.218;5.158;2022-12-07T14:21:15;4.50;;;2.00;;
69754;SDS011;57023;52.218;5.158;2022-12-07T14:23:43;4.18;;;1.77;;
69754;SDS011;57023;52.218;5.158;2022-12-07T14:26:12;5.50;;;1.92;;
69754;SDS011;57023;52.218;5.158;2022-12-07T14:28:42;3.15;;;1.90;;
69754;SDS011;57023;52.218;5.158;2022-12-07T14:31:12;5.35;;;2.00;;
69754;SDS011;57023;52.218;5.158;2022-12-07T14:33:39;5.70;;;2.13;;
69754;SDS011;57023;52.218;5.158;2022-12-07T14:36:05;5.22;;;2.10;;
69754;SDS011;57023;52.218;5.158;2022-12-07T14:38:30;5.32;;;1.90;;
69754;SDS011;57023;52.218;5.158;2022-12-07T14:40:56;6.10;;;2.10;;
69754;SDS011;57023;52.218;5.158;2022-12-07T14:43:41;3.85;;;1.83;;
69754;SDS011;57023;52.218;5.158;2022-12-07T14:46:08;6.15;;;2.20;;
69754;SDS011;57023;52.218;5.158;2022-12-07T14:48:34;5.22;;;2.30;;
69754;SDS011;57023;52.218;5.158;2022-12-07T14:50:59;7.00;;;2.55;;
69754;SDS011;57023;52.218;5.158;2022-12-07T14:53:27;4.50;;;1.95;;
69754;SDS011;57023;52.218;5.158;2022-12-07T14:55:54;6.07;;;2.30;;
69754;SDS011;57023;52.218;5.158;2022-12-07T14:58:20;5.18;;;2.67;;
69754;SDS011;57023;52.218;5.158;2022-12-07T15:00:45;7.38;;;2.67;;
69754;SDS011;57023;52.218;5.158;2022-12-07T15:03:12;8.00;;;3.00;;
69754;SDS011;57023;52.218;5.158;2022-12-07T15:05:38;7.68;;;2.80;;
69754;SDS011;57023;52.218;5.158;2022-12-07T15:08:03;9.48;;;2.78;;
69754;SDS011;57023;52.218;5.158;2022-12-07T15:10:30;9.00;;;2.60;;
69754;SDS011;57023;52.218;5.158;2022-12-07T15:13:00;5.72;;;2.53;;
69754;SDS011;57023;52.218;5.158;2022-12-07T15:15:45;7.18;;;2.60;;
69754;SDS011;57023;52.218;5.158;2022-12-07T15:18:11;5.25;;;2.70;;
69754;SDS011;57023;52.218;5.158;2022-12-07T15:20:36;7.72;;;3.65;;
69754;SDS011;57023;52.218;5.158;2022-12-07T15:23:01;9.55;;;4.45;;
69754;SDS011;57023;52.218;5.158;2022-12-07T15:25:27;6.57;;;3.70;;
69754;SDS011;57023;52.218;5.158;2022-12-07T15:27:52;5.93;;;3.00;;
69754;SDS011;57023;52.218;5.158;2022-12-07T15:30:23;8.68;;;3.20;;
69754;SDS011;57023;52.218;5.158;2022-12-07T15:32:52;8.63;;;3.35;;
69754;SDS011;57023;52.218;5.158;2022-12-07T15:35:17;7.88;;;3.05;;
69754;SDS011;57023;52.218;5.158;2022-12-07T15:37:43;10.48;;;3.72;;
69754;SDS011;57023;52.218;5.158;2022-12-07T15:40:11;11.75;;;4.38;;
69754;SDS011;57023;52.218;5.158;2022-12-07T15:42:37;10.30;;;2.95;;
69754;SDS011;57023;52.218;5.158;2022-12-07T15:45:03;9.98;;;2.85;;
69754;SDS011;57023;52.218;5.158;2022-12-07T15:47:30;6.63;;;3.05;;
69754;SDS011;57023;52.218;5.158;2022-12-07T15:49:56;6.77;;;2.27;;
69754;SDS011;57023;52.218;5.158;2022-12-07T15:52:22;7.30;;;2.70;;
69754;SDS011;57023;52.218;5.158;2022-12-07T15:54:47;7.05;;;3.30;;
69754;SDS011;57023;52.218;5.158;2022-12-07T15:57:13;7.07;;;2.80;;
69754;SDS011;57023;52.218;5.158;2022-12-07T15:59:38;6.55;;;3.13;;
69754;SDS011;57023;52.218;5.158;2022-12-07T16:02:04;7.03;;;3.20;;
69754;SDS011;57023;52.218;5.158;2022-12-07T16:04:29;7.63;;;3.40;;
69754;SDS011;57023;52.218;5.158;2022-12-07T16:06:54;10.70;;;3.10;;
69754;SDS011;57023;52.218;5.158;2022-12-07T16:09:21;8.50;;;3.20;;
69754;SDS011;57023;52.218;5.158;2022-12-07T16:11:46;7.53;;;3.40;;
69754;SDS011;57023;52.218;5.158;2022-12-07T16:14:11;10.30;;;4.07;;
69754;SDS011;57023;52.218;5.158;2022-12-07T16:16:37;8.95;;;4.00;;
69754;SDS011;57023;52.218;5.158;2022-12-07T16:19:02;7.47;;;3.75;;
69754;SDS011;57023;52.218;5.158;2022-12-07T16:21:27;12.50;;;4.78;;
69754;SDS011;57023;52.218;5.158;2022-12-07T16:23:53;8.98;;;4.43;;
69754;SDS011;57023;52.218;5.158;2022-12-07T16:26:20;11.05;;;5.15;;
69754;SDS011;57023;52.218;5.158;2022-12-07T16:28:48;15.27;;;7.53;;
69754;SDS011;57023;52.218;5.158;2022-12-07T16:31:15;13.32;;;6.82;;
69754;SDS011;57023;52.218;5.158;2022-12-07T16:33:42;10.45;;;5.60;;
69754;SDS011;57023;52.218;5.158;2022-12-07T16:36:09;11.18;;;5.70;;
69754;SDS011;57023;52.218;5.158;2022-12-07T16:38:35;9.93;;;5.30;;
69754;SDS011;57023;52.218;5.158;2022-12-07T16:41:01;8.80;;;5.50;;
69754;SDS011;57023;52.218;5.158;2022-12-07T16:43:27;14.45;;;8.02;;
69754;SDS011;57023;52.218;5.158;2022-12-07T16:45:52;15.40;;;10.80;;
69754;SDS011;57023;52.218;5.158;2022-12-07T16:48:18;13.20;;;9.05;;
69754;SDS011;57023;52.218;5.158;2022-12-07T16:50:45;12.88;;;6.70;;
69754;SDS011;57023;52.218;5.158;2022-12-07T16:53:12;12.40;;;7.78;;
69754;SDS011;57023;52.218;5.158;2022-12-07T16:55:39;16.38;;;7.53;;
69754;SDS011;57023;52.218;5.158;2022-12-07T16:58:06;14.82;;;8.57;;